createdAt,value
2023-03-22T00:00:20.502Z,58.58
2023-03-22T00:03:16.360Z,64.28
2023-03-22T00:06:02.802Z,59.65
2023-03-22T00:08:40.441Z,59.80
2023-03-22T00:11:27.125Z,52.70
2023-03-22T00:14:12.280Z,52.90
2023-03-22T00:16:53.456Z,53.30
2023-03-22T00:19:37.234Z,61.25
2023-03-22T00:22:18.410Z,53.75
2023-03-22T00:24:59.114Z,51.97
2023-03-22T00:27:42.911Z,47.50
2023-03-22T00:30:21.425Z,56.15
2023-03-22T00:33:06.111Z,54.55
2023-03-22T00:38:47.085Z,49.72
2023-03-22T00:41:36.749Z,61.03
2023-03-22T00:44:17.681Z,55.92
2023-03-22T00:46:59.270Z,79.55
2023-03-22T00:49:45.877Z,65.97
2023-03-22T00:55:08.047Z,52.08
2023-03-22T00:57:50.516Z,51.97
2023-03-22T01:00:34.078Z,61.65
2023-03-22T01:03:18.964Z,52.30
2023-03-22T01:06:03.028Z,43.80
2023-03-22T01:08:47.486Z,40.63
2023-03-22T01:11:39.753Z,40.88
2023-03-22T01:14:24.076Z,44.55
2023-03-22T01:17:16.369Z,45.60
2023-03-22T01:19:58.402Z,66.68
2023-03-22T01:22:42.232Z,99.20
2023-03-22T01:28:06.888Z,87.95
2023-03-22T01:30:48.179Z,85.80
2023-03-22T01:33:32.117Z,91.55
2023-03-22T01:36:18.731Z,80.65
2023-03-22T01:38:55.735Z,70.75
2023-03-22T01:41:45.028Z,74.25
2023-03-22T01:44:32.966Z,94.13
2023-03-22T01:47:17.160Z,96.60
2023-03-22T01:50:03.034Z,97.32
2023-03-22T01:52:52.760Z,93.95
2023-03-22T01:55:36.980Z,78.15
2023-03-22T01:58:24.873Z,70.80
2023-03-22T02:01:16.633Z,67.60
2023-03-22T02:04:10.934Z,63.17
2023-03-22T02:07:00.080Z,69.97
2023-03-22T02:09:50.170Z,72.57
2023-03-22T02:12:43.908Z,82.80
2023-03-22T02:16:16.845Z,120.57
2023-03-22T02:20:12.283Z,120.75
2023-03-22T02:23:17.494Z,115.40
2023-03-22T02:26:29.427Z,117.95
2023-03-22T02:29:12.817Z,145.30
2023-03-22T02:32:19.551Z,157.35
2023-03-22T02:35:01.087Z,134.00
2023-03-22T02:37:47.789Z,132.10
2023-03-22T02:40:41.863Z,114.03
2023-03-22T02:46:28.961Z,119.88
2023-03-22T02:49:28.496Z,114.78
2023-03-22T02:52:33.645Z,108.13
2023-03-22T02:55:22.104Z,98.53
2023-03-22T02:58:32.330Z,109.40
2023-03-22T03:01:20.187Z,104.25
2023-03-22T03:03:59.390Z,95.53
2023-03-22T03:06:46.395Z,104.03
2023-03-22T03:09:30.538Z,99.57
2023-03-22T03:14:42.306Z,90.20
2023-03-22T03:17:56.442Z,99.72
2023-03-22T03:20:49.996Z,95.00
2023-03-22T03:23:46.930Z,101.10
2023-03-22T03:26:33.392Z,94.90
2023-03-22T03:29:41.548Z,114.50
2023-03-22T03:32:46.318Z,105.00
2023-03-22T03:35:48.422Z,97.95
2023-03-22T03:38:31.151Z,92.25
2023-03-22T03:41:26.976Z,84.80
2023-03-22T03:44:07.719Z,99.90
2023-03-22T03:46:41.830Z,88.68
2023-03-22T03:49:27.468Z,79.85
2023-03-22T03:52:06.850Z,73.43
2023-03-22T03:54:48.915Z,81.40
2023-03-22T03:57:31.437Z,80.22
2023-03-22T04:00:15.138Z,93.93
2023-03-22T04:03:18.565Z,92.45
2023-03-22T04:06:28.928Z,112.30
2023-03-22T04:09:18.292Z,108.82
2023-03-22T04:12:00.007Z,118.45
2023-03-22T04:14:46.535Z,119.78
2023-03-22T04:17:38.449Z,103.95
2023-03-22T04:20:22.216Z,96.75
2023-03-22T04:23:06.602Z,95.78
2023-03-22T04:25:50.314Z,80.90
2023-03-22T04:28:43.341Z,72.82
2023-03-22T04:31:35.747Z,71.70
2023-03-22T04:34:36.209Z,76.88
2023-03-22T04:37:20.248Z,56.53
2023-03-22T04:40:20.588Z,58.45
2023-03-22T04:43:15.763Z,50.58
2023-03-22T04:46:05.504Z,40.58
2023-03-22T04:48:53.903Z,42.08
2023-03-22T04:51:39.347Z,46.75
2023-03-22T04:54:46.495Z,47.92
2023-03-22T04:57:38.254Z,47.97
2023-03-22T05:00:19.971Z,48.72
2023-03-22T05:03:02.014Z,67.10
2023-03-22T05:06:09.042Z,72.30
2023-03-22T05:08:59.017Z,96.18
2023-03-22T05:11:37.742Z,92.45
2023-03-22T05:14:38.089Z,75.13
2023-03-22T05:17:24.398Z,62.85
2023-03-22T05:20:11.269Z,53.85
2023-03-22T05:23:12.733Z,56.47
2023-03-22T05:25:58.360Z,50.33
2023-03-22T05:28:49.580Z,58.70
2023-03-22T05:31:40.046Z,61.78
2023-03-22T05:34:35.424Z,58.22
2023-03-22T05:37:26.336Z,60.10
2023-03-22T05:40:10.374Z,59.88
2023-03-22T05:43:02.945Z,67.78
2023-03-22T05:45:49.325Z,73.32
2023-03-22T05:48:46.023Z,92.60
2023-03-22T05:51:30.797Z,108.55
2023-03-22T05:57:11.632Z,131.43
2023-03-22T05:59:54.206Z,120.47
2023-03-22T06:02:38.585Z,93.03
2023-03-22T06:05:27.863Z,99.18
2023-03-22T06:08:07.468Z,91.75
2023-03-22T06:10:47.350Z,81.32
2023-03-22T06:13:35.195Z,71.90
2023-03-22T06:16:15.783Z,45.78
2023-03-22T06:19:00.590Z,32.53
2023-03-22T06:21:53.420Z,30.20
2023-03-22T06:24:42.475Z,30.08
2023-03-22T06:27:27.499Z,29.17
2023-03-22T06:30:12.396Z,28.42
2023-03-22T06:33:13.388Z,32.70
2023-03-22T06:39:21.568Z,27.88
2023-03-22T06:42:02.585Z,25.75
2023-03-22T06:44:50.322Z,24.70
2023-03-22T06:47:51.567Z,26.27
2023-03-22T06:50:44.448Z,22.85
2023-03-22T06:53:29.147Z,22.73
2023-03-22T06:59:08.042Z,18.08
2023-03-22T07:01:48.382Z,18.17
2023-03-22T07:04:37.754Z,17.23
2023-03-22T07:07:19.366Z,16.85
2023-03-22T07:10:05.787Z,15.15
2023-03-22T07:12:52.491Z,13.43
2023-03-22T07:15:39.521Z,14.48
2023-03-22T07:18:37.793Z,16.55
2023-03-22T07:21:23.008Z,14.73
2023-03-22T07:24:12.398Z,13.02
2023-03-22T07:29:45.691Z,10.85
2023-03-22T07:32:33.957Z,11.70
2023-03-22T07:35:19.181Z,12.57
2023-03-22T07:38:05.363Z,11.15
2023-03-22T07:40:59.561Z,8.52
2023-03-22T07:44:17.357Z,10.38
2023-03-22T07:47:40.017Z,11.18
2023-03-22T07:50:42.952Z,10.90
2023-03-22T07:53:23.796Z,10.15
2023-03-22T07:56:07.934Z,11.02
2023-03-22T07:58:55.023Z,10.45
2023-03-22T08:01:44.753Z,9.32
2023-03-22T08:04:51.806Z,8.38
2023-03-22T08:07:42.783Z,7.13
2023-03-22T08:10:29.252Z,6.88
2023-03-22T08:13:13.818Z,6.95
2023-03-22T08:16:08.256Z,6.22
2023-03-22T08:18:55.643Z,7.30
2023-03-22T08:21:42.325Z,6.60
2023-03-22T08:24:51.530Z,6.72
2023-03-22T08:27:53.460Z,6.67
2023-03-22T08:30:40.566Z,6.65
2023-03-22T08:33:30.044Z,6.80
2023-03-22T08:36:29.153Z,7.60
2023-03-22T08:39:14.405Z,7.85
2023-03-22T08:41:57.434Z,7.47
2023-03-22T08:45:00.327Z,7.20
2023-03-22T08:47:44.481Z,7.65
2023-03-22T08:50:31.134Z,7.25
2023-03-22T08:53:21.440Z,6.75
2023-03-22T08:56:17.160Z,6.50
2023-03-22T08:59:16.906Z,7.68
2023-03-22T09:02:17.242Z,7.07
2023-03-22T09:05:06.304Z,7.50
2023-03-22T09:08:18.263Z,8.30
2023-03-22T09:11:04.410Z,8.00
2023-03-22T09:13:51.154Z,8.18
2023-03-22T09:16:45.764Z,7.50
2023-03-22T09:19:29.640Z,8.05
2023-03-22T09:22:25.633Z,7.70
2023-03-22T09:25:12.977Z,8.80
2023-03-22T09:28:04.228Z,8.65
2023-03-22T09:30:41.538Z,8.23
2023-03-22T09:33:32.111Z,7.65
2023-03-22T09:36:20.357Z,8.98
2023-03-22T09:39:12.588Z,9.00
2023-03-22T09:42:06.357Z,8.75
2023-03-22T09:45:09.689Z,9.35
2023-03-22T09:48:05.793Z,9.30
2023-03-22T09:50:47.107Z,8.63
2023-03-22T09:53:34.446Z,9.50
2023-03-22T09:56:38.977Z,9.25
2023-03-22T09:59:28.197Z,9.90
2023-03-22T10:02:28.467Z,10.30
2023-03-22T10:05:25.995Z,9.45
2023-03-22T10:08:34.499Z,9.73
2023-03-22T10:11:38.327Z,7.90
2023-03-22T10:14:55.527Z,9.32
2023-03-22T10:17:42.738Z,10.98
2023-03-22T10:20:47.833Z,9.98
2023-03-22T10:23:50.660Z,10.38
2023-03-22T10:26:51.727Z,9.95
2023-03-22T10:29:46.392Z,10.48
2023-03-22T10:32:56.689Z,10.73
2023-03-22T10:35:42.307Z,10.10
2023-03-22T10:38:26.577Z,10.15
2023-03-22T10:44:04.313Z,10.35
2023-03-22T10:46:47.970Z,11.63
2023-03-22T10:49:35.442Z,12.52
2023-03-22T10:52:40.318Z,12.55
2023-03-22T10:55:26.527Z,11.85
2023-03-22T10:58:30.098Z,11.40
2023-03-22T11:01:41.948Z,11.52
2023-03-22T11:04:45.031Z,10.77
2023-03-22T11:08:06.930Z,11.27
2023-03-22T11:10:58.114Z,11.13
2023-03-22T11:13:44.207Z,10.77
2023-03-22T11:16:30.702Z,9.55
2023-03-22T11:19:40.661Z,8.05
2023-03-22T11:22:44.095Z,7.13
2023-03-22T11:25:43.005Z,8.55
2023-03-22T11:28:59.079Z,6.82
2023-03-22T11:31:59.097Z,7.53
2023-03-22T11:34:43.472Z,7.28
2023-03-22T11:37:40.175Z,6.85
2023-03-22T11:40:34.947Z,6.47
2023-03-22T11:43:25.248Z,7.00
2023-03-22T11:46:12.389Z,7.55
2023-03-22T11:49:00.974Z,6.95
2023-03-22T11:51:54.313Z,7.93
2023-03-22T11:54:48.966Z,7.55
2023-03-22T11:57:37.990Z,6.57
2023-03-22T12:00:26.786Z,6.30
2023-03-22T12:03:19.485Z,5.90
2023-03-22T12:06:30.631Z,7.03
2023-03-22T12:09:46.273Z,5.53
2023-03-22T12:12:43.222Z,5.70
2023-03-22T12:15:49.165Z,6.18
2023-03-22T12:18:36.622Z,6.10
2023-03-22T12:21:19.381Z,5.57
2023-03-22T12:24:06.400Z,5.78
2023-03-22T12:26:57.644Z,5.43
2023-03-22T12:29:52.856Z,5.60
2023-03-22T12:32:44.131Z,5.20
2023-03-22T12:35:34.506Z,5.93
2023-03-22T12:38:36.104Z,5.93
2023-03-22T12:41:41.190Z,6.00
2023-03-22T12:44:43.392Z,5.80
2023-03-22T12:47:47.456Z,6.70
2023-03-22T12:50:42.909Z,6.22
2023-03-22T12:53:31.344Z,6.97
2023-03-22T12:56:18.422Z,6.18
2023-03-22T12:59:08.325Z,6.43
2023-03-22T13:02:19.757Z,4.93
2023-03-22T13:05:06.975Z,6.22
2023-03-22T13:08:08.054Z,5.65
2023-03-22T13:11:01.334Z,5.03
2023-03-22T13:14:20.200Z,5.47
2023-03-22T13:17:04.611Z,5.30
2023-03-22T13:20:11.056Z,6.25
2023-03-22T13:23:08.960Z,5.70
2023-03-22T13:26:08.047Z,6.22
2023-03-22T13:31:49.394Z,5.40
2023-03-22T13:34:44.959Z,5.53
2023-03-22T13:38:13.732Z,5.13
2023-03-22T13:41:22.281Z,5.50
2023-03-22T13:44:24.313Z,5.85
2023-03-22T13:47:35.843Z,5.22
2023-03-22T13:50:36.346Z,5.65
2023-03-22T13:53:28.007Z,5.55
2023-03-22T13:56:09.093Z,4.72
2023-03-22T13:59:07.068Z,5.80
2023-03-22T14:02:04.377Z,4.72
2023-03-22T14:05:17.316Z,4.90
2023-03-22T14:08:21.981Z,4.90
2023-03-22T14:11:20.245Z,5.25
2023-03-22T14:14:13.315Z,5.88
2023-03-22T14:17:18.136Z,6.13
2023-03-22T14:20:05.358Z,5.80
